createdAt,value
2022-08-23T00:02:28.026Z,53.46
2022-08-23T00:05:08.402Z,53.68
2022-08-23T00:07:39.353Z,53.51
2022-08-23T00:10:10.240Z,53.45
2022-08-23T00:12:38.729Z,53.51
2022-08-23T00:15:09.697Z,53.69
2022-08-23T00:17:39.551Z,54.00
2022-08-23T00:20:10.951Z,54.16
2022-08-23T00:22:40.772Z,54.01
2022-08-23T00:25:11.903Z,53.84
2022-08-23T00:27:40.815Z,53.76
2022-08-23T00:30:12.419Z,53.90
2022-08-23T00:32:42.426Z,54.11
2022-08-23T00:35:12.283Z,53.90
2022-08-23T00:37:51.623Z,53.90
2022-08-23T00:40:35.991Z,53.93
2022-08-23T00:43:26.979Z,53.98
2022-08-23T00:46:18.887Z,54.21
2022-08-23T00:48:48.511Z,54.15
2022-08-23T00:51:22.408Z,53.98
2022-08-23T00:53:54.863Z,54.19
2022-08-23T00:56:25.118Z,54.06
2022-08-23T00:58:54.645Z,54.16
2022-08-23T01:01:25.116Z,54.33
2022-08-23T01:04:04.288Z,54.18
2022-08-23T01:06:39.112Z,54.68
2022-08-23T01:09:10.364Z,54.35
2022-08-23T01:11:43.636Z,54.24
2022-08-23T01:14:17.142Z,54.47
2022-08-23T01:16:50.005Z,54.21
2022-08-23T01:19:26.193Z,54.44
2022-08-23T01:22:07.101Z,54.60
2022-08-23T01:25:07.111Z,54.54
2022-08-23T01:27:27.267Z,54.69
2022-08-23T01:29:55.247Z,54.74
2022-08-23T01:32:23.320Z,54.32
2022-08-23T01:34:52.004Z,54.11
2022-08-23T01:37:22.171Z,54.37
2022-08-23T01:39:52.860Z,54.44
2022-08-23T01:42:21.161Z,54.66
2022-08-23T01:44:49.151Z,55.09
2022-08-23T01:47:18.634Z,54.64
2022-08-23T01:49:47.603Z,54.87
2022-08-23T01:52:17.180Z,54.86
2022-08-23T01:54:45.119Z,54.70
2022-08-23T01:57:15.007Z,54.91
2022-08-23T01:59:44.390Z,54.86
2022-08-23T02:02:12.411Z,54.75
2022-08-23T02:04:40.533Z,54.76
2022-08-23T02:07:08.706Z,54.90
2022-08-23T02:09:36.573Z,55.12
2022-08-23T02:12:05.539Z,55.27
2022-08-23T02:14:34.999Z,55.31
2022-08-23T02:17:05.062Z,55.34
2022-08-23T02:19:33.771Z,55.03
2022-08-23T02:22:03.371Z,55.41
2022-08-23T02:24:33.650Z,55.36
2022-08-23T02:27:05.788Z,55.22
2022-08-23T02:29:39.068Z,55.41
2022-08-23T02:32:09.025Z,55.62
2022-08-23T02:34:38.451Z,55.58
2022-08-23T02:37:06.966Z,55.56
2022-08-23T02:39:35.163Z,56.09
2022-08-23T02:42:04.187Z,56.29
2022-08-23T02:44:35.649Z,56.41
2022-08-23T02:47:04.328Z,56.37
2022-08-23T02:49:32.592Z,56.63
2022-08-23T02:52:00.664Z,56.54
2022-08-23T02:54:28.877Z,56.22
2022-08-23T02:56:56.868Z,56.23
2022-08-23T02:59:24.823Z,56.48
2022-08-23T03:01:54.398Z,57.26
2022-08-23T03:04:22.995Z,56.86
2022-08-23T03:06:51.006Z,56.70
2022-08-23T03:09:19.250Z,56.53
2022-08-23T03:11:49.588Z,56.07
2022-08-23T03:14:18.145Z,56.40
2022-08-23T03:16:46.654Z,56.64
2022-08-23T03:19:16.211Z,56.62
2022-08-23T03:21:44.166Z,56.65
2022-08-23T03:24:12.940Z,56.43
2022-08-23T03:26:43.817Z,56.37
2022-08-23T03:29:11.850Z,56.63
2022-08-23T03:31:42.536Z,56.09
2022-08-23T03:34:12.269Z,56.37
2022-08-23T03:36:41.599Z,56.63
2022-08-23T03:39:10.604Z,56.91
2022-08-23T03:41:39.291Z,56.72
2022-08-23T03:44:08.604Z,56.50
2022-08-23T03:46:37.307Z,56.30
2022-08-23T03:49:05.980Z,56.44
2022-08-23T03:51:36.005Z,56.54
2022-08-23T03:54:06.712Z,56.59
2022-08-23T03:56:37.792Z,56.43
2022-08-23T03:59:09.798Z,56.47
2022-08-23T04:01:37.937Z,56.57
2022-08-23T04:04:06.255Z,56.40
2022-08-23T04:06:34.907Z,56.29
2022-08-23T04:09:02.968Z,56.28
2022-08-23T04:11:33.456Z,56.66
2022-08-23T04:14:02.396Z,56.32
2022-08-23T04:16:33.367Z,56.31
2022-08-23T04:19:01.871Z,56.64
2022-08-23T04:21:31.388Z,56.52
2022-08-23T04:23:59.547Z,56.53
2022-08-23T04:26:30.243Z,56.85
2022-08-23T04:28:59.888Z,56.58
2022-08-23T04:31:29.185Z,56.82
2022-08-23T04:34:03.922Z,56.64
2022-08-23T04:36:36.831Z,56.45
2022-08-23T04:39:05.546Z,56.71
2022-08-23T04:41:51.379Z,56.86
2022-08-23T04:44:21.283Z,56.80
2022-08-23T04:46:49.873Z,56.96
2022-08-23T04:49:18.775Z,56.74
2022-08-23T04:51:53.968Z,56.80
2022-08-23T04:54:23.245Z,56.57
2022-08-23T04:56:51.785Z,56.66
2022-08-23T04:59:25.202Z,57.78
2022-08-23T05:01:53.932Z,58.70
2022-08-23T05:04:21.892Z,58.20
2022-08-23T05:06:52.081Z,58.28
2022-08-23T05:09:24.981Z,58.44
2022-08-23T05:11:52.992Z,59.18
2022-08-23T05:14:22.575Z,58.92
2022-08-23T05:16:51.872Z,58.49
2022-08-23T05:19:19.850Z,58.18
2022-08-23T05:21:48.134Z,57.68
2022-08-23T05:24:16.102Z,57.51
2022-08-23T05:26:44.274Z,57.19
2022-08-23T05:29:12.739Z,57.36
2022-08-23T05:31:41.345Z,57.52
2022-08-23T05:34:11.018Z,57.73
2022-08-23T05:36:48.321Z,57.62
2022-08-23T05:39:36.143Z,58.11
2022-08-23T05:42:06.615Z,58.26
2022-08-23T05:44:36.659Z,58.00
2022-08-23T05:47:10.753Z,58.12
2022-08-23T05:49:41.681Z,58.65
2022-08-23T05:52:12.668Z,60.11
2022-08-23T05:54:42.071Z,59.36
2022-08-23T05:57:11.999Z,59.46
2022-08-23T05:59:41.782Z,59.31
2022-08-23T06:02:10.276Z,59.79
2022-08-23T06:04:38.447Z,59.37
2022-08-23T06:07:09.821Z,58.92
2022-08-23T06:09:38.518Z,58.99
2022-08-23T06:12:06.962Z,59.02
2022-08-23T06:14:35.044Z,58.80
2022-08-23T06:17:03.139Z,58.77
2022-08-23T06:19:34.636Z,58.75
2022-08-23T06:22:03.374Z,58.38
2022-08-23T06:24:33.305Z,58.58
2022-08-23T06:27:01.481Z,58.48
2022-08-23T06:29:29.550Z,58.12
2022-08-23T06:32:02.653Z,57.87
2022-08-23T06:34:33.655Z,57.87
2022-08-23T06:37:04.717Z,57.65
2022-08-23T06:39:37.781Z,57.90
2022-08-23T06:42:28.012Z,57.13
2022-08-23T06:45:01.803Z,57.41
2022-08-23T06:47:31.639Z,57.12
2022-08-23T06:50:00.067Z,56.95
2022-08-23T06:52:30.805Z,56.70
2022-08-23T06:55:02.309Z,56.60
2022-08-23T06:57:32.423Z,56.37
2022-08-23T07:00:01.548Z,56.42
2022-08-23T07:02:38.227Z,56.49
2022-08-23T07:05:17.260Z,56.43
2022-08-23T07:07:51.515Z,56.05
2022-08-23T07:10:21.470Z,56.37
2022-08-23T07:12:50.150Z,56.19
2022-08-23T07:15:20.211Z,56.12
2022-08-23T07:17:48.290Z,56.13
2022-08-23T07:20:16.531Z,55.89
2022-08-23T07:22:45.436Z,55.79
2022-08-23T07:25:14.779Z,55.63
2022-08-23T07:27:47.862Z,55.39
2022-08-23T07:30:16.460Z,55.31
2022-08-23T07:32:46.040Z,55.32
2022-08-23T07:35:15.020Z,55.41
2022-08-23T07:37:43.363Z,55.14
2022-08-23T07:40:20.297Z,55.16
2022-08-23T07:42:53.783Z,55.10
2022-08-23T07:45:23.009Z,54.78
2022-08-23T07:47:52.432Z,54.24
2022-08-23T07:50:20.411Z,54.00
2022-08-23T07:52:49.070Z,54.00
2022-08-23T07:55:18.157Z,53.74
2022-08-23T07:57:48.173Z,53.38
2022-08-23T08:00:19.245Z,53.36
2022-08-23T08:02:48.716Z,53.36
2022-08-23T08:05:21.616Z,53.02
2022-08-23T08:07:50.311Z,52.77
2022-08-23T08:10:18.927Z,52.33
2022-08-23T08:12:46.891Z,52.04
2022-08-23T08:15:15.694Z,51.86
2022-08-23T08:17:48.087Z,51.43
2022-08-23T08:20:26.580Z,50.89
2022-08-23T08:22:58.689Z,51.01
2022-08-23T08:25:30.892Z,50.82
2022-08-23T08:27:59.299Z,50.74
2022-08-23T08:30:27.168Z,50.75
2022-08-23T08:32:57.305Z,50.43
2022-08-23T08:35:25.983Z,49.84
2022-08-23T08:37:54.382Z,50.20
2022-08-23T08:40:31.450Z,49.76
2022-08-23T08:43:14.561Z,49.47
2022-08-23T08:45:58.982Z,48.38
2022-08-23T08:48:31.126Z,47.64
2022-08-23T08:51:04.895Z,48.12
2022-08-23T08:53:39.030Z,46.92
2022-08-23T08:56:16.517Z,47.36
2022-08-23T08:58:50.976Z,47.85
2022-08-23T09:01:20.444Z,47.05
2022-08-23T09:03:50.789Z,47.95
2022-08-23T09:06:25.710Z,47.54
2022-08-23T09:09:05.016Z,46.04
2022-08-23T09:11:45.518Z,45.59
2022-08-23T09:14:41.207Z,44.96
2022-08-23T09:17:20.810Z,45.14
2022-08-23T09:19:54.011Z,45.64
2022-08-23T09:22:31.510Z,46.95
2022-08-23T09:24:59.995Z,46.33
2022-08-23T09:27:28.688Z,47.02
2022-08-23T09:30:02.687Z,46.67
2022-08-23T09:32:34.679Z,46.72
2022-08-23T09:35:12.565Z,46.50
2022-08-23T09:37:52.210Z,43.86
2022-08-23T09:40:26.567Z,43.75
2022-08-23T09:43:08.870Z,46.55
2022-08-23T09:45:40.799Z,43.28
2022-08-23T09:48:14.519Z,46.40
2022-08-23T09:50:54.557Z,44.95
2022-08-23T09:53:26.831Z,44.57
2022-08-23T09:55:58.299Z,45.80
2022-08-23T09:58:32.841Z,45.61
2022-08-23T10:01:12.033Z,45.19
2022-08-23T10:03:42.650Z,42.72
2022-08-23T10:06:31.194Z,45.20
2022-08-23T10:09:04.813Z,43.78
2022-08-23T10:11:37.202Z,45.22
2022-08-23T10:14:05.471Z,44.06
2022-08-23T10:16:40.985Z,44.96
2022-08-23T10:19:19.852Z,43.42
2022-08-23T10:21:58.766Z,41.66
2022-08-23T10:24:38.522Z,42.26
2022-08-23T10:27:35.987Z,43.23
2022-08-23T10:30:11.805Z,41.17
2022-08-23T10:32:54.102Z,42.76
2022-08-23T10:35:30.085Z,41.14
2022-08-23T10:38:34.990Z,41.82
2022-08-23T10:41:16.902Z,38.93
2022-08-23T10:43:54.489Z,40.26
2022-08-23T10:46:23.949Z,40.94
2022-08-23T10:48:55.913Z,43.00
2022-08-23T10:51:31.822Z,42.47
2022-08-23T10:54:07.556Z,42.73
2022-08-23T10:56:42.999Z,42.08
2022-08-23T10:59:21.197Z,42.02
2022-08-23T11:01:57.083Z,42.86
2022-08-23T11:04:30.749Z,42.38
2022-08-23T11:07:01.595Z,42.87
2022-08-23T11:09:51.283Z,43.29
2022-08-23T11:12:31.111Z,41.25
2022-08-23T11:15:10.383Z,41.84
2022-08-23T11:17:55.490Z,40.26
2022-08-23T11:21:02.585Z,40.85
2022-08-23T11:23:40.885Z,38.78
2022-08-23T11:26:12.857Z,39.65
2022-08-23T11:28:43.398Z,41.42
2022-08-23T11:31:27.223Z,41.44
2022-08-23T11:34:02.567Z,38.74
2022-08-23T11:36:31.672Z,38.44
2022-08-23T11:39:11.000Z,41.73
2022-08-23T11:42:02.557Z,40.12
2022-08-23T11:44:38.395Z,38.66
2022-08-23T11:47:12.100Z,39.67
2022-08-23T11:50:21.191Z,40.34
2022-08-23T11:53:09.117Z,39.23
2022-08-23T11:56:10.083Z,39.88
2022-08-23T11:58:58.185Z,38.54
2022-08-23T12:01:32.928Z,39.34
2022-08-23T12:04:10.116Z,40.38
2022-08-23T12:06:50.748Z,41.81
2022-08-23T12:09:55.215Z,39.25
2022-08-23T12:12:31.628Z,39.10
2022-08-23T12:15:09.836Z,39.36
2022-08-23T12:18:12.104Z,40.83
2022-08-23T12:20:42.211Z,35.70
2022-08-23T12:23:18.895Z,39.03
2022-08-23T12:25:47.209Z,39.95
2022-08-23T12:28:34.000Z,39.97
2022-08-23T12:31:15.126Z,36.87
2022-08-23T12:33:57.748Z,37.63
2022-08-23T12:36:34.231Z,35.15
2022-08-23T12:39:07.890Z,35.07
2022-08-23T12:41:52.216Z,37.79
2022-08-23T12:44:22.637Z,33.57
2022-08-23T12:46:52.699Z,38.04
2022-08-23T12:49:26.988Z,38.39
2022-08-23T12:51:57.580Z,36.98
2022-08-23T12:54:35.806Z,38.12
2022-08-23T12:57:11.691Z,33.84
2022-08-23T12:59:50.461Z,37.26
2022-08-23T13:02:25.775Z,34.32
2022-08-23T13:04:59.142Z,35.93
2022-08-23T13:07:27.786Z,37.78
2022-08-23T13:09:56.633Z,37.63
2022-08-23T13:12:25.184Z,37.31
2022-08-23T13:14:55.521Z,37.17
2022-08-23T13:17:36.574Z,37.31
2022-08-23T13:20:23.738Z,34.06
2022-08-23T13:23:01.495Z,33.82
2022-08-23T13:25:33.177Z,34.50
2022-08-23T13:28:04.515Z,36.70
2022-08-23T13:30:36.404Z,36.62
2022-08-23T13:33:24.120Z,36.46
2022-08-23T13:36:13.190Z,30.84
2022-08-23T13:38:43.396Z,35.22
2022-08-23T13:41:27.316Z,35.08
2022-08-23T13:43:55.894Z,35.38
2022-08-23T13:46:27.429Z,35.86
2022-08-23T13:49:00.997Z,35.39
2022-08-23T13:51:33.336Z,34.55
2022-08-23T13:54:04.366Z,35.03
2022-08-23T13:56:36.557Z,35.40
2022-08-23T13:59:18.237Z,34.50
2022-08-23T14:01:46.536Z,34.64
2022-08-23T14:04:16.124Z,35.30
2022-08-23T14:06:44.094Z,35.14
2022-08-23T14:09:17.197Z,35.25
2022-08-23T14:11:45.847Z,34.98
2022-08-23T14:14:14.171Z,34.93
2022-08-23T14:16:42.468Z,35.23
2022-08-23T14:19:16.670Z,35.44
2022-08-23T14:22:02.022Z,35.71
2022-08-23T14:24:30.019Z,35.90
2022-08-23T14:26:58.693Z,35.85
2022-08-23T14:29:29.089Z,35.87
2022-08-23T14:31:58.658Z,35.81
2022-08-23T14:34:28.044Z,35.78
2022-08-23T14:39:46.013Z,35.23
2022-08-23T14:42:17.479Z,35.22
2022-08-23T14:44:45.652Z,34.98
2022-08-23T14:47:13.521Z,35.22
2022-08-23T14:49:41.512Z,34.93
2022-08-23T14:52:10.084Z,35.04
2022-08-23T14:54:38.097Z,34.90
2022-08-23T14:57:08.586Z,34.38
2022-08-23T14:59:37.310Z,34.45
2022-08-23T15:02:10.914Z,34.90
2022-08-23T15:04:40.307Z,34.55
2022-08-23T15:07:18.124Z,34.60
2022-08-23T15:09:47.639Z,34.48
2022-08-23T15:15:07.689Z,33.57
2022-08-23T15:17:38.845Z,34.30
2022-08-23T15:20:07.938Z,33.62
2022-08-23T15:22:44.372Z,33.65
2022-08-23T15:25:25.371Z,34.25
2022-08-23T15:27:54.913Z,34.41
2022-08-23T15:30:24.292Z,33.58
2022-08-23T15:32:56.898Z,33.05
2022-08-23T15:35:28.719Z,32.27
2022-08-23T15:37:58.249Z,32.30
2022-08-23T15:40:26.797Z,31.93
2022-08-23T15:42:57.264Z,31.63
2022-08-23T15:45:25.151Z,31.31
2022-08-23T15:47:55.161Z,31.20
2022-08-23T15:50:27.069Z,30.98
2022-08-23T15:52:55.971Z,29.14
2022-08-23T15:55:24.735Z,30.33
2022-08-23T15:57:54.534Z,30.17
2022-08-23T16:00:26.268Z,29.98
2022-08-23T16:03:18.286Z,29.08
2022-08-23T16:05:45.559Z,29.81
2022-08-23T16:08:19.200Z,29.85
2022-08-23T16:10:47.435Z,28.65
2022-08-23T16:13:17.060Z,29.63
2022-08-23T16:15:47.205Z,29.55
2022-08-23T16:18:15.510Z,29.11
2022-08-23T16:20:44.360Z,29.63
2022-08-23T16:23:13.023Z,29.56
2022-08-23T16:25:42.172Z,29.57
2022-08-23T16:28:10.540Z,29.56
2022-08-23T16:30:38.515Z,29.30
2022-08-23T16:33:08.210Z,29.43
2022-08-23T16:35:36.329Z,29.21
2022-08-23T16:38:05.095Z,29.44
2022-08-23T16:40:33.822Z,29.74
2022-08-23T16:43:01.992Z,30.45
2022-08-23T16:45:30.016Z,31.12
2022-08-23T16:47:58.218Z,31.85
2022-08-23T16:50:28.596Z,32.13
2022-08-23T16:52:56.682Z,32.13
2022-08-23T16:55:24.954Z,32.99
2022-08-23T16:57:52.882Z,33.27
2022-08-23T17:00:21.088Z,33.50
2022-08-23T17:02:49.287Z,33.65
2022-08-23T17:05:19.604Z,34.03
2022-08-23T17:07:49.224Z,34.08
2022-08-23T17:10:19.599Z,34.30
2022-08-23T17:12:50.902Z,34.61
2022-08-23T17:15:23.324Z,34.74
2022-08-23T17:17:52.010Z,34.85
2022-08-23T17:20:22.766Z,34.90
2022-08-23T17:22:52.589Z,35.00
2022-08-23T17:25:20.973Z,35.14
2022-08-23T17:27:51.019Z,35.30
2022-08-23T17:30:22.038Z,35.46
2022-08-23T17:32:51.531Z,35.60
2022-08-23T17:35:22.397Z,35.78
2022-08-23T17:37:52.500Z,36.16
2022-08-23T17:40:24.376Z,36.44
2022-08-23T17:42:53.163Z,36.53
2022-08-23T17:45:21.649Z,36.67
2022-08-23T17:47:49.723Z,36.84
2022-08-23T17:50:18.915Z,37.09
2022-08-23T17:52:50.801Z,37.25
2022-08-23T17:55:20.619Z,37.39
2022-08-23T17:57:49.344Z,37.60
2022-08-23T18:00:19.929Z,37.69
2022-08-23T18:02:48.120Z,37.87
2022-08-23T18:05:16.942Z,38.07
2022-08-23T18:07:45.169Z,38.22
2022-08-23T18:10:13.774Z,38.42
2022-08-23T18:12:43.272Z,38.59
2022-08-23T18:15:12.604Z,38.92
2022-08-23T18:17:43.867Z,39.17
2022-08-23T18:20:12.646Z,39.92
2022-08-23T18:22:40.925Z,39.64
2022-08-23T18:25:11.028Z,39.73
2022-08-23T18:27:59.295Z,39.92
2022-08-23T18:30:29.180Z,40.30
2022-08-23T18:32:57.381Z,40.72
2022-08-23T18:35:26.055Z,40.74
2022-08-23T18:37:54.386Z,40.91
2022-08-23T18:40:22.738Z,41.16
2022-08-23T18:42:50.839Z,41.36
2022-08-23T18:45:19.351Z,41.62
2022-08-23T18:47:50.955Z,41.76
2022-08-23T18:50:19.538Z,41.87
2022-08-23T18:52:47.511Z,42.07
2022-08-23T18:55:16.294Z,42.20
2022-08-23T18:57:44.413Z,42.57
2022-08-23T19:00:13.576Z,42.68
2022-08-23T19:02:41.796Z,43.04
2022-08-23T19:05:11.910Z,43.11
2022-08-23T19:07:39.986Z,43.37
2022-08-23T19:10:09.275Z,43.47
2022-08-23T19:12:38.320Z,43.57
2022-08-23T19:15:08.608Z,43.61
2022-08-23T19:17:36.783Z,43.71
2022-08-23T19:20:07.395Z,43.85
2022-08-23T19:22:38.955Z,43.96
2022-08-23T19:25:18.853Z,44.42
2022-08-23T19:28:00.302Z,44.21
2022-08-23T19:30:45.367Z,44.30
2022-08-23T19:33:14.151Z,45.14
2022-08-23T19:35:42.697Z,44.80
2022-08-23T19:38:14.137Z,44.85
2022-08-23T19:40:43.055Z,44.99
2022-08-23T19:43:11.564Z,45.16
2022-08-23T19:45:40.335Z,45.30
2022-08-23T19:48:10.017Z,45.43
2022-08-23T19:50:40.275Z,45.50
2022-08-23T19:53:08.994Z,45.70
2022-08-23T19:55:43.243Z,45.70
2022-08-23T19:58:14.682Z,46.81
2022-08-23T20:00:42.958Z,46.01
2022-08-23T20:03:11.953Z,46.10
2022-08-23T20:05:48.935Z,46.17
2022-08-23T20:08:18.426Z,48.00
2022-08-23T20:10:48.605Z,46.33
2022-08-23T20:13:21.879Z,46.49
2022-08-23T20:15:55.564Z,46.44
2022-08-23T20:18:24.900Z,46.54
2022-08-23T20:20:53.970Z,46.60
2022-08-23T20:23:39.700Z,46.63
2022-08-23T20:26:11.409Z,46.70
2022-08-23T20:28:40.002Z,46.89
2022-08-23T20:31:29.750Z,46.98
2022-08-23T20:33:57.952Z,47.12
2022-08-23T20:36:27.983Z,47.23
2022-08-23T20:38:58.058Z,47.30
2022-08-23T20:41:27.911Z,47.38
2022-08-23T20:43:57.024Z,47.77
2022-08-23T20:46:25.006Z,47.73
2022-08-23T20:48:53.742Z,47.75
2022-08-23T20:51:22.393Z,47.70
2022-08-23T20:53:51.192Z,47.69
2022-08-23T20:56:20.492Z,47.66
2022-08-23T20:58:50.814Z,47.79
2022-08-23T21:01:19.279Z,47.92
2022-08-23T21:03:47.363Z,47.91
2022-08-23T21:06:20.114Z,48.05
2022-08-23T21:08:49.755Z,48.21
2022-08-23T21:11:22.582Z,48.10
2022-08-23T21:13:51.844Z,48.16
2022-08-23T21:16:20.715Z,48.38
2022-08-23T21:18:49.645Z,48.49
2022-08-23T21:21:21.576Z,48.53
2022-08-23T21:23:50.219Z,48.52
2022-08-23T21:26:18.436Z,48.77
2022-08-23T21:28:46.691Z,48.75
2022-08-23T21:31:18.217Z,48.88
2022-08-23T21:33:46.386Z,49.29
2022-08-23T21:36:16.498Z,48.99
2022-08-23T21:38:45.509Z,49.14
2022-08-23T21:41:30.191Z,49.18
2022-08-23T21:43:58.442Z,51.20
2022-08-23T21:46:28.013Z,49.15
2022-08-23T21:48:56.037Z,49.46
2022-08-23T21:51:24.645Z,49.38
2022-08-23T21:53:52.683Z,49.47
2022-08-23T21:56:20.806Z,49.63
2022-08-23T21:58:50.679Z,49.74
2022-08-23T22:01:19.234Z,49.74
2022-08-23T22:03:49.433Z,49.72
2022-08-23T22:06:19.524Z,49.74
2022-08-23T22:08:47.876Z,49.77
2022-08-23T22:11:16.030Z,49.96
2022-08-23T22:13:44.744Z,50.02
2022-08-23T22:16:13.342Z,50.04
2022-08-23T22:18:42.777Z,50.17
2022-08-23T22:21:12.217Z,50.17
2022-08-23T22:23:43.311Z,50.29
2022-08-23T22:26:13.654Z,50.33
2022-08-23T22:28:44.596Z,50.50
2022-08-23T22:31:15.212Z,50.49
2022-08-23T22:33:45.071Z,50.46
2022-08-23T22:36:16.952Z,50.59
2022-08-23T22:38:46.640Z,50.91
2022-08-23T22:41:16.996Z,50.60
2022-08-23T22:43:45.640Z,50.63
2022-08-23T22:46:13.932Z,50.66
2022-08-23T22:48:42.135Z,50.63
2022-08-23T22:51:12.064Z,50.76
2022-08-23T22:53:47.134Z,50.78
2022-08-23T22:56:17.686Z,51.19
2022-08-23T22:58:45.780Z,50.82
2022-08-23T23:01:20.274Z,50.73
2022-08-23T23:03:49.431Z,51.24
2022-08-23T23:06:19.876Z,50.79
2022-08-23T23:08:49.344Z,50.91
2022-08-23T23:11:18.450Z,50.97
2022-08-23T23:13:47.014Z,50.87
2022-08-23T23:16:18.787Z,51.08
2022-08-23T23:19:08.012Z,51.10
2022-08-23T23:21:37.059Z,51.34
2022-08-23T23:24:06.764Z,51.46
2022-08-23T23:26:34.843Z,51.54
2022-08-23T23:29:02.853Z,51.37
2022-08-23T23:31:31.006Z,51.41
2022-08-23T23:33:58.955Z,52.04
2022-08-23T23:36:26.939Z,52.17
2022-08-23T23:38:58.127Z,52.32
2022-08-23T23:41:27.688Z,52.29
2022-08-23T23:43:55.867Z,52.14
2022-08-23T23:46:25.239Z,52.09
2022-08-23T23:48:53.993Z,52.00
2022-08-23T23:51:24.306Z,52.12
2022-08-23T23:53:53.638Z,52.02
2022-08-23T23:56:25.497Z,52.20
2022-08-23T23:58:55.129Z,52.46
